createdAt,value
2023-04-21T00:00:42.770Z,6.75
2023-04-21T00:02:46.541Z,6.28
2023-04-21T00:04:49.764Z,5.95
2023-04-21T00:06:53.259Z,6.63
2023-04-21T00:08:54.909Z,6.05
2023-04-21T00:10:58.657Z,6.05
2023-04-21T00:13:00.145Z,7.03
2023-04-21T00:15:01.863Z,5.93
2023-04-21T00:17:06.432Z,6.90
2023-04-21T00:19:08.591Z,6.38
2023-04-21T00:21:10.277Z,6.47
2023-04-21T00:23:11.750Z,6.38
2023-04-21T00:25:14.942Z,6.18
2023-04-21T00:27:16.610Z,5.82
2023-04-21T00:29:18.951Z,6.15
2023-04-21T00:31:23.937Z,5.63
2023-04-21T00:33:25.772Z,6.03
2023-04-21T00:35:27.361Z,5.70
2023-04-21T00:37:29.400Z,5.95
2023-04-21T00:39:30.862Z,6.13
2023-04-21T00:41:34.165Z,6.63
2023-04-21T00:43:35.797Z,5.95
2023-04-21T00:45:37.364Z,5.97
2023-04-21T00:47:38.879Z,5.93
2023-04-21T00:49:40.586Z,5.72
2023-04-21T00:51:42.161Z,5.53
2023-04-21T00:53:44.506Z,6.03
2023-04-21T00:55:47.202Z,6.35
2023-04-21T00:57:50.409Z,6.35
2023-04-21T00:59:52.203Z,6.18
2023-04-21T01:01:53.932Z,6.40
2023-04-21T01:03:59.661Z,6.25
2023-04-21T01:06:01.724Z,6.43
2023-04-21T01:08:06.508Z,6.88
2023-04-21T01:10:08.470Z,6.55
2023-04-21T01:12:12.015Z,6.05
2023-04-21T01:14:14.490Z,6.13
2023-04-21T01:16:20.587Z,6.15
2023-04-21T01:18:22.100Z,6.05
2023-04-21T01:20:23.536Z,5.97
2023-04-21T01:22:25.140Z,6.18
2023-04-21T01:24:39.907Z,6.10
2023-04-21T01:26:41.412Z,6.40
2023-04-21T01:28:43.111Z,5.90
2023-04-21T01:30:48.266Z,5.82
2023-04-21T01:32:49.861Z,6.35
2023-04-21T01:34:53.471Z,6.20
2023-04-21T01:36:55.088Z,5.75
2023-04-21T01:39:00.532Z,5.93
2023-04-21T01:41:04.515Z,6.90
2023-04-21T01:43:06.357Z,6.25
2023-04-21T01:45:09.496Z,5.68
2023-04-21T01:47:12.323Z,6.13
2023-04-21T01:49:14.472Z,5.93
2023-04-21T01:51:15.930Z,6.65
2023-04-21T01:53:19.052Z,6.43
2023-04-21T01:55:20.861Z,6.18
2023-04-21T01:57:22.946Z,7.18
2023-04-21T01:59:26.160Z,8.27
2023-04-21T02:01:27.682Z,8.73
2023-04-21T02:03:29.500Z,9.85
2023-04-21T02:05:36.487Z,9.73
2023-04-21T02:07:43.965Z,9.90
2023-04-21T02:09:46.005Z,9.25
2023-04-21T02:11:49.553Z,9.77
2023-04-21T02:13:53.683Z,9.63
2023-04-21T02:16:09.532Z,9.15
2023-04-21T02:18:15.046Z,8.10
2023-04-21T02:20:21.113Z,7.47
2023-04-21T02:22:25.059Z,7.47
2023-04-21T02:24:27.115Z,7.38
2023-04-21T02:26:28.765Z,7.00
2023-04-21T02:28:31.609Z,7.78
2023-04-21T02:30:34.325Z,7.18
2023-04-21T02:32:36.313Z,7.15
2023-04-21T02:34:39.405Z,6.30
2023-04-21T02:36:41.546Z,7.07
2023-04-21T02:38:42.979Z,6.70
2023-04-21T02:40:45.204Z,7.18
2023-04-21T02:42:49.837Z,7.30
2023-04-21T02:44:51.404Z,7.38
2023-04-21T02:46:53.042Z,7.13
2023-04-21T02:49:00.436Z,6.82
2023-04-21T02:51:01.953Z,7.00
2023-04-21T02:53:04.960Z,7.13
2023-04-21T02:55:07.223Z,6.95
2023-04-21T02:57:14.116Z,6.75
2023-04-21T02:59:18.164Z,7.47
2023-04-21T03:01:20.168Z,7.38
2023-04-21T03:03:21.875Z,6.95
2023-04-21T03:05:24.231Z,6.90
2023-04-21T03:07:26.292Z,7.13
2023-04-21T03:09:27.800Z,6.55
2023-04-21T03:11:32.027Z,6.68
2023-04-21T03:13:33.586Z,6.03
2023-04-21T03:15:35.363Z,7.20
2023-04-21T03:17:37.096Z,7.13
2023-04-21T03:19:38.658Z,6.70
2023-04-21T03:21:40.244Z,6.53
2023-04-21T03:23:44.784Z,6.82
2023-04-21T03:25:46.710Z,6.80
2023-04-21T03:27:49.409Z,6.55
2023-04-21T03:29:52.195Z,6.32
2023-04-21T03:31:53.779Z,6.63
2023-04-21T03:33:56.275Z,6.93
2023-04-21T03:35:57.941Z,6.97
2023-04-21T03:38:00.147Z,6.25
2023-04-21T03:40:07.229Z,6.43
2023-04-21T03:42:08.718Z,6.43
2023-04-21T03:44:10.511Z,6.57
2023-04-21T03:46:21.888Z,6.50
2023-04-21T03:48:23.612Z,6.63
2023-04-21T03:50:25.189Z,5.85
2023-04-21T03:52:26.879Z,6.68
2023-04-21T03:54:28.406Z,6.50
2023-04-21T03:56:34.326Z,6.30
2023-04-21T03:58:36.195Z,7.00
2023-04-21T04:00:37.920Z,6.28
2023-04-21T04:02:40.232Z,6.53
2023-04-21T04:04:42.010Z,6.68
2023-04-21T04:06:43.670Z,6.57
2023-04-21T04:08:45.161Z,6.30
2023-04-21T04:10:46.769Z,6.47
2023-04-21T04:12:50.337Z,6.82
2023-04-21T04:14:52.109Z,6.60
2023-04-21T04:16:53.746Z,6.38
2023-04-21T04:18:55.435Z,6.43
2023-04-21T04:20:56.912Z,6.53
2023-04-21T04:23:00.470Z,6.43
2023-04-21T04:25:01.960Z,6.45
2023-04-21T04:27:03.860Z,6.65
2023-04-21T04:29:10.452Z,6.70
2023-04-21T04:31:15.038Z,6.60
2023-04-21T04:33:19.031Z,6.57
2023-04-21T04:35:22.649Z,6.25
2023-04-21T04:37:25.345Z,6.40
2023-04-21T04:39:26.974Z,6.30
2023-04-21T04:41:34.040Z,6.50
2023-04-21T04:43:41.765Z,6.57
2023-04-21T04:45:46.305Z,6.38
2023-04-21T04:47:49.586Z,6.45
2023-04-21T04:49:51.297Z,6.38
2023-04-21T04:51:52.786Z,6.18
2023-04-21T04:53:54.391Z,6.28
2023-04-21T04:55:57.515Z,6.30
2023-04-21T04:57:59.025Z,7.22
2023-04-21T05:00:00.481Z,6.32
2023-04-21T05:02:04.682Z,6.50
2023-04-21T05:04:06.597Z,6.75
2023-04-21T05:06:08.738Z,6.80
2023-04-21T05:08:10.244Z,6.13
2023-04-21T05:10:14.261Z,6.45
2023-04-21T05:12:15.808Z,5.95
2023-04-21T05:14:17.524Z,6.18
2023-04-21T05:16:19.294Z,6.45
2023-04-21T05:18:20.812Z,6.57
2023-04-21T05:20:22.878Z,6.65
2023-04-21T05:22:24.935Z,6.32
2023-04-21T05:24:26.341Z,5.60
2023-04-21T05:26:29.023Z,6.18
2023-04-21T05:28:32.970Z,6.60
2023-04-21T05:30:34.483Z,6.55
2023-04-21T05:32:36.414Z,6.43
2023-04-21T05:34:38.812Z,6.43
2023-04-21T05:36:43.227Z,6.20
2023-04-21T05:38:44.757Z,6.88
2023-04-21T05:40:56.252Z,6.30
2023-04-21T05:42:57.809Z,5.43
2023-04-21T05:45:00.477Z,5.78
2023-04-21T05:47:02.029Z,6.03
2023-04-21T05:49:03.487Z,6.05
2023-04-21T05:51:14.651Z,5.93
2023-04-21T05:53:16.289Z,6.22
2023-04-21T05:55:17.826Z,6.35
2023-04-21T05:57:22.297Z,5.78
2023-04-21T05:59:23.941Z,6.30
2023-04-21T06:01:25.505Z,5.85
2023-04-21T06:03:27.303Z,5.78
2023-04-21T06:05:29.026Z,5.45
2023-04-21T06:07:30.678Z,5.13
2023-04-21T06:09:36.260Z,5.72
2023-04-21T06:11:37.875Z,5.32
2023-04-21T06:13:40.961Z,5.13
2023-04-21T06:15:44.160Z,5.20
2023-04-21T06:17:45.838Z,4.88
2023-04-21T06:19:52.910Z,4.85
2023-04-21T06:21:54.369Z,4.65
2023-04-21T06:23:55.918Z,5.07
2023-04-21T06:26:07.953Z,5.03
2023-04-21T06:28:09.420Z,4.95
2023-04-21T06:30:11.594Z,5.18
2023-04-21T06:32:13.351Z,4.90
2023-04-21T06:34:15.160Z,5.03
2023-04-21T06:36:18.146Z,5.00
2023-04-21T06:38:20.678Z,5.63
2023-04-21T06:40:22.233Z,5.20
2023-04-21T06:42:23.866Z,5.35
2023-04-21T06:44:25.366Z,5.72
2023-04-21T06:46:26.807Z,6.60
2023-04-21T06:48:29.858Z,6.55
2023-04-21T06:50:32.921Z,6.53
2023-04-21T06:52:34.477Z,6.28
2023-04-21T06:54:35.908Z,7.13
2023-04-21T06:56:37.577Z,7.72
2023-04-21T06:58:40.235Z,7.70
2023-04-21T07:00:41.926Z,7.00
2023-04-21T07:02:46.506Z,8.32
2023-04-21T07:04:48.316Z,8.10
2023-04-21T07:06:54.435Z,7.80
2023-04-21T07:08:56.283Z,7.03
2023-04-21T07:11:00.116Z,7.00
2023-04-21T07:13:01.625Z,7.57
2023-04-21T07:15:03.495Z,7.22
2023-04-21T07:17:05.512Z,6.68
2023-04-21T07:19:07.739Z,7.57
2023-04-21T07:21:09.229Z,6.60
2023-04-21T07:23:10.816Z,6.75
2023-04-21T07:25:12.792Z,6.35
2023-04-21T07:27:15.477Z,7.03
2023-04-21T07:29:17.224Z,7.22
2023-04-21T07:31:21.367Z,6.53
2023-04-21T07:33:22.863Z,6.57
2023-04-21T07:35:24.673Z,7.40
2023-04-21T07:37:27.104Z,6.90
2023-04-21T07:39:28.704Z,7.18
2023-04-21T07:41:30.244Z,7.65
2023-04-21T07:43:31.930Z,7.15
2023-04-21T07:45:33.432Z,6.95
2023-04-21T07:47:35.106Z,6.97
2023-04-21T07:49:36.618Z,6.68
2023-04-21T07:51:44.070Z,6.63
2023-04-21T07:53:46.183Z,7.13
2023-04-21T07:55:47.763Z,6.65
2023-04-21T07:57:49.427Z,6.20
2023-04-21T07:59:51.308Z,5.95
2023-04-21T08:01:55.722Z,6.15
2023-04-21T08:03:57.447Z,7.03
2023-04-21T08:05:59.283Z,6.97
2023-04-21T08:08:01.561Z,6.82
2023-04-21T08:10:03.806Z,6.72
2023-04-21T08:12:07.302Z,6.50
2023-04-21T08:14:11.884Z,6.60
2023-04-21T08:16:13.714Z,7.18
2023-04-21T08:18:17.496Z,6.10
2023-04-21T08:20:20.102Z,6.10
2023-04-21T08:22:21.929Z,6.75
2023-04-21T08:24:23.605Z,5.95
2023-04-21T08:26:25.615Z,5.68
2023-04-21T08:28:29.514Z,6.07
2023-04-21T08:30:31.076Z,5.90
2023-04-21T08:32:32.529Z,5.60
2023-04-21T08:34:34.438Z,5.63
2023-04-21T08:36:36.014Z,5.40
2023-04-21T08:38:38.305Z,5.50
2023-04-21T08:40:39.932Z,5.68
2023-04-21T08:42:42.423Z,5.80
2023-04-21T08:44:45.716Z,5.05
2023-04-21T08:46:50.490Z,5.38
2023-04-21T08:48:53.086Z,5.68
2023-04-21T08:50:56.949Z,5.88
2023-04-21T08:52:58.875Z,5.40
2023-04-21T08:55:00.578Z,5.57
2023-04-21T08:57:13.938Z,5.70
2023-04-21T08:59:16.500Z,5.30
2023-04-21T09:01:18.195Z,4.90
2023-04-21T09:03:26.323Z,5.20
2023-04-21T09:05:33.124Z,5.47
2023-04-21T09:07:39.124Z,5.40
2023-04-21T09:09:57.838Z,5.30
2023-04-21T09:11:59.780Z,4.72
2023-04-21T09:14:01.208Z,5.20
2023-04-21T09:16:18.191Z,4.65
2023-04-21T09:18:22.332Z,4.78
2023-04-21T09:20:24.854Z,4.53
2023-04-21T09:22:27.496Z,4.60
2023-04-21T09:24:29.043Z,4.90
2023-04-21T09:26:31.029Z,4.55
2023-04-21T09:28:33.254Z,4.60
2023-04-21T09:30:41.519Z,4.53
2023-04-21T09:32:43.254Z,4.10
2023-04-21T09:34:45.592Z,4.45
2023-04-21T09:36:48.322Z,4.45
2023-04-21T09:41:06.397Z,4.18
2023-04-21T09:43:08.030Z,4.13
2023-04-21T09:47:15.647Z,4.00
2023-04-21T09:49:26.027Z,4.40
2023-04-21T09:51:49.337Z,4.00
2023-04-21T09:53:54.049Z,4.28
2023-04-21T09:55:58.650Z,4.13
2023-04-21T09:58:02.565Z,3.90
2023-04-21T10:00:20.713Z,4.05
2023-04-21T10:02:31.994Z,3.88
2023-04-21T10:04:35.128Z,3.78
2023-04-21T10:06:37.226Z,4.00
2023-04-21T10:08:39.098Z,3.72
2023-04-21T10:10:40.990Z,4.03
2023-04-21T10:12:44.070Z,3.80
2023-04-21T10:14:45.683Z,4.28
2023-04-21T10:17:06.611Z,4.25
2023-04-21T10:19:24.647Z,4.00
2023-04-21T10:21:28.999Z,3.63
2023-04-21T10:23:43.352Z,4.10
2023-04-21T10:25:49.455Z,3.70
2023-04-21T10:27:51.100Z,3.85
2023-04-21T10:29:57.135Z,4.00
2023-04-21T10:31:59.492Z,3.85
2023-04-21T10:34:12.023Z,4.30
2023-04-21T10:36:15.645Z,3.40
2023-04-21T10:38:41.046Z,3.50
2023-04-21T10:40:44.938Z,3.35
2023-04-21T10:42:46.526Z,3.65
2023-04-21T10:44:52.990Z,3.85
2023-04-21T10:46:57.648Z,3.70
2023-04-21T10:49:09.917Z,3.97
2023-04-21T10:51:13.458Z,3.90
2023-04-21T10:53:16.793Z,3.60
2023-04-21T10:55:18.299Z,3.50
2023-04-21T10:57:20.645Z,3.65
2023-04-21T10:59:22.927Z,3.20
2023-04-21T11:01:24.857Z,3.90
2023-04-21T11:03:34.687Z,3.80
2023-04-21T11:05:38.893Z,3.72
2023-04-21T11:07:43.593Z,3.33
2023-04-21T11:09:47.162Z,3.65
2023-04-21T11:11:58.594Z,3.45
2023-04-21T11:14:18.281Z,3.42
2023-04-21T11:16:20.921Z,3.38
2023-04-21T11:18:32.685Z,3.42
2023-04-21T11:20:34.626Z,3.08
2023-04-21T11:22:37.808Z,3.30
2023-04-21T11:24:47.508Z,3.25
2023-04-21T11:26:49.378Z,3.50
2023-04-21T11:28:50.924Z,3.40
2023-04-21T11:30:54.737Z,3.20
2023-04-21T11:32:57.928Z,3.40
2023-04-21T11:35:00.122Z,3.42
2023-04-21T11:37:01.934Z,2.90
2023-04-21T11:39:11.457Z,3.42
2023-04-21T11:41:20.796Z,3.38
2023-04-21T11:43:22.330Z,2.90
2023-04-21T11:45:24.094Z,3.47
2023-04-21T11:47:28.172Z,3.38
2023-04-21T11:49:30.521Z,3.50
2023-04-21T11:51:36.910Z,3.25
2023-04-21T11:53:41.435Z,3.45
2023-04-21T11:55:45.485Z,3.28
2023-04-21T11:57:48.144Z,3.20
2023-04-21T11:59:55.687Z,3.35
2023-04-21T12:01:57.176Z,3.08
2023-04-21T12:04:01.423Z,3.13
2023-04-21T12:06:06.031Z,2.97
2023-04-21T12:08:14.840Z,3.20
2023-04-21T12:10:20.931Z,3.35
2023-04-21T12:12:24.311Z,3.33
2023-04-21T12:14:29.202Z,3.00
2023-04-21T12:16:30.926Z,2.90
2023-04-21T12:18:34.365Z,2.78
2023-04-21T12:20:37.965Z,2.72
2023-04-21T12:22:39.536Z,2.97
2023-04-21T12:24:42.081Z,2.75
2023-04-21T12:26:46.606Z,2.60
2023-04-21T12:28:53.753Z,2.60
2023-04-21T12:30:58.452Z,2.80
2023-04-21T12:33:01.588Z,2.92
2023-04-21T12:35:05.277Z,2.40
2023-04-21T12:37:12.276Z,2.90
2023-04-21T12:39:14.038Z,2.67
2023-04-21T12:41:15.805Z,2.95
2023-04-21T12:43:17.312Z,3.10
2023-04-21T12:45:24.704Z,2.60
2023-04-21T12:47:26.382Z,2.72
2023-04-21T12:49:28.236Z,2.88
2023-04-21T12:51:30.056Z,2.28
2023-04-21T12:53:32.236Z,2.50
2023-04-21T12:55:36.121Z,2.22
2023-04-21T12:57:37.639Z,2.80
2023-04-21T12:59:48.582Z,3.15
2023-04-21T13:01:53.300Z,2.60
2023-04-21T13:03:55.184Z,2.70
2023-04-21T13:05:57.689Z,2.30
2023-04-21T13:07:59.199Z,2.53
2023-04-21T13:10:00.733Z,2.58
2023-04-21T13:12:02.368Z,2.60
2023-04-21T13:14:04.129Z,2.30
2023-04-21T13:16:06.109Z,2.83
2023-04-21T13:18:09.716Z,2.40
2023-04-21T13:20:11.671Z,2.33
2023-04-21T13:22:13.648Z,2.22
2023-04-21T13:24:15.406Z,2.17
2023-04-21T13:26:17.789Z,2.40
2023-04-21T13:28:19.643Z,2.25
2023-04-21T13:30:21.318Z,2.50
2023-04-21T13:32:23.118Z,2.28
2023-04-21T13:34:29.149Z,2.30
2023-04-21T13:36:32.427Z,2.20
2023-04-21T13:38:34.178Z,2.38
2023-04-21T13:40:35.700Z,2.45
2023-04-21T13:42:37.718Z,2.35
2023-04-21T13:44:39.623Z,2.45
2023-04-21T13:46:45.470Z,2.17
2023-04-21T13:48:47.120Z,2.08
2023-04-21T13:50:49.040Z,2.60
2023-04-21T13:52:50.609Z,2.42
2023-04-21T13:54:55.171Z,2.35
2023-04-21T13:56:57.193Z,2.20
2023-04-21T13:58:59.610Z,2.10
2023-04-21T14:01:01.218Z,2.45
2023-04-21T14:03:05.758Z,2.47
2023-04-21T14:05:07.879Z,2.30
2023-04-21T14:07:10.205Z,2.63
2023-04-21T14:09:14.101Z,2.53
2023-04-21T14:11:15.921Z,2.47
2023-04-21T14:13:33.567Z,2.45
2023-04-21T14:15:40.335Z,2.50
2023-04-21T14:17:42.043Z,2.30
2023-04-21T14:19:50.370Z,2.50
2023-04-21T14:21:55.480Z,2.30
2023-04-21T14:23:57.178Z,2.28
2023-04-21T14:25:58.772Z,2.33
2023-04-21T14:28:00.609Z,2.13
2023-04-21T14:30:02.500Z,2.30
2023-04-21T14:32:05.171Z,2.22
2023-04-21T14:34:06.898Z,2.42
2023-04-21T14:36:08.535Z,2.63
2023-04-21T14:38:10.401Z,2.55
2023-04-21T14:40:12.044Z,2.30
2023-04-21T14:42:13.564Z,2.15
2023-04-21T14:44:16.140Z,2.40
2023-04-21T14:46:17.684Z,2.35
2023-04-21T14:48:19.505Z,2.15
2023-04-21T14:50:21.661Z,2.22
2023-04-21T14:52:26.946Z,2.53
2023-04-21T14:54:31.241Z,2.33
2023-04-21T14:56:38.809Z,2.17
2023-04-21T14:58:40.468Z,2.17
2023-04-21T15:00:42.098Z,2.50
2023-04-21T15:02:43.652Z,2.42
2023-04-21T15:04:45.309Z,2.30
2023-04-21T15:06:47.006Z,1.95
2023-04-21T15:08:48.581Z,2.20
2023-04-21T15:10:50.201Z,2.25
2023-04-21T15:12:53.291Z,1.92
2023-04-21T15:14:54.936Z,2.25
2023-04-21T15:16:56.881Z,2.00
2023-04-21T15:18:58.329Z,2.40
2023-04-21T15:21:00.067Z,2.10
2023-04-21T15:23:01.589Z,2.13
2023-04-21T15:25:09.468Z,2.00
2023-04-21T15:27:11.010Z,2.58
2023-04-21T15:29:12.762Z,2.08
2023-04-21T15:31:17.350Z,2.22
2023-04-21T15:33:18.966Z,2.03
2023-04-21T15:35:20.743Z,2.47
2023-04-21T15:37:26.471Z,2.30
2023-04-21T15:39:28.143Z,2.20
2023-04-21T15:41:34.126Z,2.58
2023-04-21T15:43:44.966Z,2.30
2023-04-21T15:45:46.703Z,2.60
2023-04-21T15:47:48.391Z,2.10
2023-04-21T15:49:49.959Z,2.10
2023-04-21T15:51:51.668Z,2.33
2023-04-21T15:53:54.496Z,2.22
2023-04-21T15:55:56.052Z,2.28
2023-04-21T15:57:57.745Z,2.40
2023-04-21T15:59:59.338Z,2.40
2023-04-21T16:02:01.178Z,2.55
2023-04-21T16:04:03.472Z,2.00
2023-04-21T16:06:05.917Z,2.42
2023-04-21T16:08:07.471Z,2.42
2023-04-21T16:10:10.682Z,2.13
2023-04-21T16:12:12.322Z,2.30
2023-04-21T16:14:16.554Z,2.20
2023-04-21T16:16:18.111Z,2.28
2023-04-21T16:18:20.026Z,2.30
2023-04-21T16:20:21.611Z,2.25
2023-04-21T16:22:23.140Z,2.55
2023-04-21T16:24:24.795Z,2.10
2023-04-21T16:26:26.623Z,2.53
2023-04-21T16:28:28.198Z,2.42
2023-04-21T16:30:29.770Z,2.30
2023-04-21T16:32:39.116Z,2.65
2023-04-21T16:34:41.511Z,2.63
2023-04-21T16:36:43.515Z,2.58
2023-04-21T16:38:45.047Z,2.55
2023-04-21T16:40:50.197Z,2.60
2023-04-21T16:42:52.533Z,2.35
2023-04-21T16:44:58.926Z,2.40
2023-04-21T16:47:03.697Z,2.40
2023-04-21T16:49:05.483Z,2.63
2023-04-21T16:51:07.086Z,2.60
2023-04-21T16:53:16.034Z,2.25
2023-04-21T16:55:17.945Z,2.42
2023-04-21T16:57:19.900Z,2.58
2023-04-21T16:59:26.112Z,2.63
2023-04-21T17:01:30.783Z,2.75
2023-04-21T17:03:35.373Z,2.45
2023-04-21T17:05:39.798Z,2.47
2023-04-21T17:07:41.603Z,2.20
2023-04-21T17:09:43.563Z,2.50
2023-04-21T17:11:46.012Z,2.70
2023-04-21T17:13:49.418Z,3.05
2023-04-21T17:15:50.947Z,3.22
2023-04-21T17:17:55.713Z,3.10
2023-04-21T17:19:59.419Z,3.13
2023-04-21T17:22:01.092Z,2.58
2023-04-21T17:24:02.599Z,2.90
2023-04-21T17:26:07.192Z,3.03
2023-04-21T17:28:08.765Z,2.75
2023-04-21T17:30:13.375Z,3.00
2023-04-21T17:32:17.053Z,2.95
2023-04-21T17:34:18.906Z,2.80
2023-04-21T17:36:21.222Z,3.08
2023-04-21T17:38:22.865Z,2.47
2023-04-21T17:40:29.822Z,2.75
2023-04-21T17:42:34.407Z,2.38
2023-04-21T17:44:40.966Z,2.40
2023-04-21T17:46:43.538Z,2.60
2023-04-21T17:48:45.772Z,2.83
2023-04-21T17:50:49.634Z,2.80
2023-04-21T17:52:52.421Z,2.28
2023-04-21T17:54:54.520Z,2.45
2023-04-21T17:56:58.941Z,2.40
2023-04-21T17:59:01.044Z,2.50
2023-04-21T18:01:02.986Z,2.50
2023-04-21T18:03:04.864Z,2.20
2023-04-21T18:05:06.840Z,2.85
2023-04-21T18:07:08.395Z,2.60
2023-04-21T18:09:10.817Z,2.83
2023-04-21T18:11:12.297Z,2.92
2023-04-21T18:13:13.967Z,2.90
2023-04-21T18:15:15.499Z,2.80
2023-04-21T18:17:19.824Z,3.03
2023-04-21T18:19:21.330Z,3.05
2023-04-21T18:21:23.961Z,2.78
2023-04-21T18:23:26.425Z,2.80
2023-04-21T18:27:38.101Z,2.97
2023-04-21T18:29:39.646Z,2.42
2023-04-21T18:31:41.280Z,3.00
2023-04-21T18:33:42.873Z,3.00
2023-04-21T18:35:46.018Z,2.90
2023-04-21T18:37:47.473Z,2.53
2023-04-21T18:39:48.935Z,2.83
2023-04-21T18:41:53.129Z,2.97
2023-04-21T18:43:54.883Z,2.90
2023-04-21T18:45:56.570Z,2.65
2023-04-21T18:48:01.339Z,2.40
2023-04-21T18:50:06.479Z,2.65
2023-04-21T18:52:09.363Z,2.90
2023-04-21T18:54:12.079Z,2.70
2023-04-21T18:56:13.739Z,2.95
2023-04-21T18:58:18.773Z,3.08
2023-04-21T19:00:20.388Z,2.70
2023-04-21T19:02:23.211Z,2.60
2023-04-21T19:04:25.040Z,2.90
2023-04-21T19:06:27.853Z,2.80
2023-04-21T19:08:41.382Z,2.90
2023-04-21T19:10:44.649Z,2.60
2023-04-21T19:12:46.136Z,2.65
2023-04-21T19:14:48.209Z,2.88
2023-04-21T19:16:52.963Z,2.60
2023-04-21T19:18:54.818Z,2.90
2023-04-21T19:20:56.798Z,2.90
2023-04-21T19:22:58.260Z,2.88
2023-04-21T19:25:00.798Z,3.05
2023-04-21T19:27:02.766Z,2.80
2023-04-21T19:29:11.563Z,2.95
2023-04-21T19:31:13.119Z,3.25
2023-04-21T19:33:15.139Z,3.20
2023-04-21T19:35:16.773Z,3.42
2023-04-21T19:37:18.492Z,3.40
2023-04-21T19:39:20.989Z,3.20
2023-04-21T19:41:26.103Z,3.65
2023-04-21T19:43:30.008Z,3.33
2023-04-21T19:45:31.765Z,3.20
2023-04-21T19:47:36.370Z,3.38
2023-04-21T19:49:37.909Z,3.38
2023-04-21T19:51:41.098Z,3.70
2023-04-21T19:54:12.064Z,3.40
2023-04-21T19:56:14.139Z,3.35
2023-04-21T19:58:28.257Z,3.05
2023-04-21T20:00:41.147Z,3.05
2023-04-21T20:02:43.563Z,2.88
2023-04-21T20:04:48.293Z,3.03
2023-04-21T20:06:50.139Z,3.10
2023-04-21T20:08:54.517Z,3.85
2023-04-21T20:10:57.027Z,3.83
2023-04-21T20:12:58.630Z,3.65
2023-04-21T20:15:01.302Z,3.70
2023-04-21T20:17:02.898Z,3.25
2023-04-21T20:19:07.313Z,3.20
2023-04-21T20:21:08.846Z,3.03
2023-04-21T20:23:10.689Z,3.53
2023-04-21T20:25:13.639Z,3.70
2023-04-21T20:27:18.560Z,3.33
2023-04-21T20:29:22.646Z,3.17
2023-04-21T20:31:25.475Z,3.08
2023-04-21T20:33:28.328Z,3.20
2023-04-21T20:35:33.257Z,3.35
2023-04-21T20:37:37.852Z,3.15
2023-04-21T20:39:43.200Z,3.20
2023-04-21T20:42:00.957Z,3.10
2023-04-21T20:44:14.167Z,3.20
2023-04-21T20:46:18.590Z,3.28
2023-04-21T20:48:20.605Z,3.13
2023-04-21T20:50:23.643Z,3.00
2023-04-21T20:52:27.972Z,3.00
2023-04-21T20:54:34.930Z,3.28
2023-04-21T20:56:39.230Z,2.78
2023-04-21T20:58:40.799Z,3.15
2023-04-21T21:00:43.213Z,2.70
2023-04-21T21:02:46.248Z,2.95
2023-04-21T21:04:47.845Z,3.28
2023-04-21T21:06:49.440Z,3.10
2023-04-21T21:08:51.151Z,2.85
2023-04-21T21:10:52.986Z,2.88
2023-04-21T21:12:54.493Z,2.88
2023-04-21T21:14:58.793Z,3.13
2023-04-21T21:17:03.410Z,2.88
2023-04-21T21:19:05.100Z,2.20
2023-04-21T21:21:08.101Z,2.83
2023-04-21T21:23:09.573Z,2.50
2023-04-21T21:25:11.385Z,2.72
2023-04-21T21:27:13.138Z,2.60
2023-04-21T21:29:14.610Z,2.80
2023-04-21T21:31:16.288Z,2.80
2023-04-21T21:33:18.953Z,2.78
2023-04-21T21:35:21.223Z,2.60
2023-04-21T21:37:24.388Z,2.85
2023-04-21T21:39:27.607Z,2.90
2023-04-21T21:41:31.580Z,2.67
2023-04-21T21:43:33.724Z,2.80
2023-04-21T21:45:35.295Z,2.85
2023-04-21T21:47:41.034Z,2.63
2023-04-21T21:49:44.652Z,2.65
2023-04-21T21:51:49.412Z,2.85
2023-04-21T21:53:51.244Z,2.20
2023-04-21T21:55:52.745Z,2.50
2023-04-21T21:57:54.376Z,2.83
2023-04-21T21:59:56.016Z,2.70
2023-04-21T22:01:57.582Z,2.40
2023-04-21T22:03:59.173Z,2.30
2023-04-21T22:06:00.822Z,2.55
2023-04-21T22:08:02.307Z,2.60
2023-04-21T22:10:06.784Z,2.88
2023-04-21T22:12:09.624Z,2.47
2023-04-21T22:14:22.533Z,2.97
2023-04-21T22:16:24.567Z,3.08
2023-04-21T22:18:26.986Z,3.10
2023-04-21T22:20:31.261Z,2.95
2023-04-21T22:22:32.796Z,2.65
2023-04-21T22:24:34.551Z,2.40
2023-04-21T22:26:41.046Z,2.75
2023-04-21T22:28:55.434Z,2.70
2023-04-21T22:30:57.113Z,2.45
2023-04-21T22:33:00.051Z,2.80
2023-04-21T22:35:02.764Z,2.65
2023-04-21T22:37:07.540Z,2.90
2023-04-21T22:39:09.063Z,2.58
2023-04-21T22:41:13.556Z,2.67
2023-04-21T22:43:15.338Z,2.58
2023-04-21T22:45:19.837Z,3.03
2023-04-21T22:47:21.662Z,3.00
2023-04-21T22:49:26.165Z,3.05
2023-04-21T22:51:29.810Z,2.83
2023-04-21T22:53:31.523Z,3.22
2023-04-21T22:55:33.174Z,2.97
2023-04-21T22:57:37.362Z,2.60
2023-04-21T22:59:46.563Z,2.80
2023-04-21T23:01:48.331Z,2.97
2023-04-21T23:03:50.081Z,3.20
2023-04-21T23:05:51.749Z,3.15
2023-04-21T23:07:55.920Z,3.17
2023-04-21T23:10:00.240Z,3.10
2023-04-21T23:12:01.936Z,2.72
2023-04-21T23:14:05.582Z,3.08
2023-04-21T23:16:10.612Z,2.63
2023-04-21T23:18:12.171Z,2.67
2023-04-21T23:20:14.588Z,2.60
2023-04-21T23:22:22.515Z,3.00
2023-04-21T23:24:26.018Z,2.65
2023-04-21T23:26:27.887Z,2.97
2023-04-21T23:28:29.413Z,2.72
2023-04-21T23:30:31.055Z,2.50
2023-04-21T23:32:32.542Z,2.80
2023-04-21T23:34:34.145Z,2.78
2023-04-21T23:36:36.519Z,2.80
2023-04-21T23:38:40.822Z,2.97
2023-04-21T23:40:42.482Z,2.53
2023-04-21T23:42:47.382Z,2.92
2023-04-21T23:44:49.412Z,2.80
2023-04-21T23:46:52.677Z,2.72
2023-04-21T23:48:54.689Z,2.92
2023-04-21T23:50:56.845Z,2.63
2023-04-21T23:53:03.577Z,2.83
2023-04-21T23:55:06.384Z,2.97
2023-04-21T23:57:08.088Z,2.88
2023-04-21T23:59:09.537Z,2.78
